Time;durP1;ratioP1;P1;durP2;ratioP2;P2;SDS_P1;SDS_P2;PMS_P1;PMS_P2;Temp;Humidity;BMP_temperature;BMP_pressure;BME280_temperature;BME280_humidity;BME280_pressure;Samples;Min_cycle;Max_cycle;Signal;HPM_P1;HPM_P2
2022/04/15 00:01:22;;;;;;;1.60;1.20;;;19.60;50.70;;;;;;5069775;28;20111;-69
2022/04/15 00:03:48;;;;;;;2.25;1.48;;;19.60;50.60;;;;;;5069279;28;20040;-69
2022/04/15 00:06:15;;;;;;;2.05;1.20;;;19.60;50.60;;;;;;5070519;28;20074;-69
2022/04/15 00:08:40;;;;;;;2.85;1.30;;;19.60;50.60;;;;;;5068776;28;20048;-68
2022/04/15 00:11:06;;;;;;;1.38;1.27;;;19.50;50.60;;;;;;5070555;28;20040;-69
2022/04/15 00:13:33;;;;;;;1.80;1.25;;;19.50;50.60;;;;;;5070400;28;20041;-69
2022/04/15 00:15:59;;;;;;;2.03;1.30;;;19.50;50.60;;;;;;5069252;28;20041;-69
2022/04/15 00:18:26;;;;;;;2.90;1.50;;;19.50;50.60;;;;;;5069647;28;20048;-68
2022/04/15 00:20:52;;;;;;;3.63;1.45;;;19.50;50.60;;;;;;5070289;28;20043;-69
2022/04/15 00:23:22;;;;;;;1.80;1.30;;;19.50;51.40;;;;;;5070255;28;20040;-69
2022/04/15 00:25:51;;;;;;;1.67;1.30;;;19.50;50.60;;;;;;5068983;28;20060;-68
2022/04/15 00:28:17;;;;;;;1.80;1.10;;;19.50;50.60;;;;;;5069859;28;20036;-69
2022/04/15 00:30:43;;;;;;;2.55;1.60;;;19.50;50.60;;;;;;5068319;28;20044;-68
2022/04/15 00:33:09;;;;;;;2.10;1.08;;;19.50;50.60;;;;;;5054148;28;20487;-69
2022/04/15 00:35:35;;;;;;;2.33;1.33;;;19.50;50.60;;;;;;5050660;28;20043;-68
2022/04/15 00:38:00;;;;;;;3.75;1.38;;;19.50;50.60;;;;;;5050560;28;20459;-69
2022/04/15 00:40:26;;;;;;;2.33;1.30;;;19.50;50.60;;;;;;5050575;28;20045;-69
2022/04/15 00:42:52;;;;;;;1.48;1.23;;;19.40;50.60;;;;;;5050529;28;20121;-69
2022/04/15 00:45:17;;;;;;;2.15;1.10;;;19.50;50.70;;;;;;5050632;28;20037;-69
2022/04/15 00:47:57;;;;;;;2.40;1.38;;;19.40;51.40;;;;;;5053782;28;20047;-69
2022/04/15 00:50:24;;;;;;;2.58;1.30;;;19.40;50.60;;;;;;5053916;28;20044;-68
2022/04/15 00:52:52;;;;;;;1.90;1.30;;;19.40;50.60;;;;;;5053673;28;20049;-69
2022/04/15 00:55:20;;;;;;;2.20;1.27;;;19.40;50.60;;;;;;5053556;28;20033;-69
2022/04/15 00:57:51;;;;;;;1.88;1.17;;;19.40;50.60;;;;;;5053612;28;20048;-69
2022/04/15 01:00:18;;;;;;;2.28;1.48;;;19.40;50.60;;;;;;5052605;28;20045;-69
2022/04/15 01:02:44;;;;;;;1.85;1.20;;;19.40;50.60;;;;;;5053648;28;20498;-69
2022/04/15 01:05:11;;;;;;;1.70;1.10;;;19.40;50.60;;;;;;5053626;28;20452;-68
2022/04/15 01:07:41;;;;;;;2.30;1.10;;;19.40;50.60;;;;;;5053503;28;20523;-69
2022/04/15 01:10:09;;;;;;;2.65;1.40;;;19.40;50.60;;;;;;5051865;28;20049;-69
2022/04/15 01:12:40;;;;;;;2.63;1.42;;;19.40;50.60;;;;;;5053473;28;20496;-69
2022/04/15 01:15:08;;;;;;;2.45;1.40;;;19.40;50.70;;;;;;5052356;28;20381;-69
2022/04/15 01:17:34;;;;;;;1.48;1.20;;;19.40;50.60;;;;;;5052734;28;20480;-69
2022/04/15 01:20:01;;;;;;;1.92;1.25;;;19.40;50.70;;;;;;5052711;28;20044;-69
2022/04/15 01:22:48;;;;;;;2.20;1.20;;;19.40;50.70;;;;;;5066726;28;20040;-69
2022/04/15 01:25:16;;;;;;;3.45;1.30;;;19.40;50.70;;;;;;5072962;28;20029;-68
2022/04/15 01:27:48;;;;;;;1.85;1.35;;;19.30;50.60;;;;;;5073740;28;20066;-69
2022/04/15 01:30:19;;;;;;;3.65;1.23;;;19.30;50.60;;;;;;5072758;28;20047;-69
2022/04/15 01:32:46;;;;;;;4.07;1.20;;;19.30;50.70;;;;;;5073549;28;20097;-69
2022/04/15 01:35:13;;;;;;;1.90;1.20;;;19.30;50.70;;;;;;5073304;28;20154;-68
2022/04/15 01:37:39;;;;;;;2.47;1.30;;;19.30;50.70;;;;;;5073368;28;20558;-69
2022/04/15 01:40:08;;;;;;;3.20;1.20;;;19.30;50.70;;;;;;5073126;28;20052;-69
2022/04/15 01:42:35;;;;;;;2.03;1.40;;;19.30;50.70;;;;;;5073336;28;20040;-69
2022/04/15 01:45:01;;;;;;;2.63;1.10;;;19.30;50.70;;;;;;5071767;28;20093;-68
2022/04/15 01:47:27;;;;;;;2.33;1.02;;;19.30;50.70;;;;;;5072757;28;20426;-69
2022/04/15 01:49:53;;;;;;;2.05;1.30;;;19.30;50.80;;;;;;5072258;28;20044;-69
2022/04/15 01:52:19;;;;;;;3.20;1.30;;;19.30;50.70;;;;;;5072666;28;20035;-69
2022/04/15 01:54:45;;;;;;;3.05;1.10;;;19.30;50.70;;;;;;5072502;28;20123;-68
2022/04/15 01:57:11;;;;;;;2.17;1.20;;;19.30;50.80;;;;;;5071661;28;20403;-68
2022/04/15 01:59:38;;;;;;;2.95;1.42;;;19.30;50.80;;;;;;5071322;28;20040;-68
2022/04/15 02:02:04;;;;;;;2.13;1.10;;;19.20;50.70;;;;;;5072879;28;20044;-69
2022/04/15 02:04:30;;;;;;;2.75;1.10;;;19.30;50.80;;;;;;5072222;28;20420;-69
2022/04/15 02:06:56;;;;;;;2.78;1.35;;;19.20;50.70;;;;;;5072512;28;20055;-69
2022/04/15 02:09:22;;;;;;;2.72;1.17;;;19.20;50.80;;;;;;5071403;28;20131;-69
2022/04/15 02:11:48;;;;;;;2.40;1.17;;;19.20;50.80;;;;;;5056631;28;20123;-69
2022/04/15 02:14:16;;;;;;;1.60;1.05;;;19.30;54.00;;;;;;5051671;28;20045;-69
2022/04/15 02:16:42;;;;;;;;;;;18.30;50.30;;;;;;5052056;28;20107;-68
2022/04/15 02:19:08;;;;;;;2.88;1.17;;;19.20;50.70;;;;;;5051678;28;19921;-69
2022/04/15 02:21:33;;;;;;;2.33;1.10;;;19.20;50.80;;;;;;5051920;28;20444;-69
2022/04/15 02:24:00;;;;;;;1.52;1.05;;;19.20;50.80;;;;;;5071120;28;20097;-69
2022/04/15 02:26:25;;;;;;;1.92;1.10;;;19.20;50.80;;;;;;5071703;28;20044;-69
2022/04/15 02:28:51;;;;;;;2.05;1.02;;;19.20;50.90;;;;;;5071761;28;20067;-69
2022/04/15 02:31:17;;;;;;;2.70;1.40;;;19.20;50.90;;;;;;5071282;28;20048;-68
2022/04/15 02:33:43;;;;;;;3.78;1.17;;;19.20;50.90;;;;;;5068379;28;20049;-68
2022/04/15 02:36:08;;;;;;;2.90;1.10;;;19.20;50.90;;;;;;5051704;28;20045;-69
2022/04/15 02:38:35;;;;;;;2.20;1.27;;;19.20;50.90;;;;;;5051296;28;20041;-69
2022/04/15 02:41:03;;;;;;;2.25;1.05;;;19.20;50.90;;;;;;5051810;28;20048;-68
2022/04/15 02:43:31;;;;;;;2.63;1.20;;;19.10;50.80;;;;;;5051882;28;20400;-69
2022/04/15 02:46:02;;;;;;;1.58;1.20;;;19.10;50.90;;;;;;5050800;28;20107;-68
2022/04/15 02:48:28;;;;;;;2.22;1.00;;;19.10;50.90;;;;;;5051076;28;20493;-69
2022/04/15 02:50:54;;;;;;;1.65;1.10;;;19.10;50.90;;;;;;5051468;28;20046;-68
2022/04/15 02:53:21;;;;;;;2.33;1.10;;;19.10;50.90;;;;;;5057689;28;20032;-69
2022/04/15 02:55:47;;;;;;;2.00;1.00;;;19.10;50.90;;;;;;5066097;28;20506;-69
2022/04/15 02:58:13;;;;;;;1.80;0.93;;;19.10;50.90;;;;;;5070986;28;20032;-68
2022/04/15 03:00:38;;;;;;;2.00;1.00;;;19.10;50.90;;;;;;5070463;28;20531;-69
2022/04/15 03:03:04;;;;;;;1.80;1.10;;;19.10;50.90;;;;;;5074335;28;20036;-68
2022/04/15 03:05:30;;;;;;;1.73;1.10;;;19.20;51.00;;;;;;5073142;28;20365;-69
2022/04/15 03:07:56;;;;;;;1.20;1.02;;;19.10;50.90;;;;;;5070773;28;20123;-68
2022/04/15 03:10:21;;;;;;;2.35;1.00;;;19.10;50.90;;;;;;5071162;28;20586;-68
2022/04/15 03:12:49;;;;;;;1.52;1.10;;;19.10;50.90;;;;;;5070994;28;20049;-68
2022/04/15 03:15:15;;;;;;;2.08;0.98;;;19.10;50.90;;;;;;5070466;28;20040;-69
2022/04/15 03:17:40;;;;;;;2.53;1.40;;;19.10;50.90;;;;;;5070681;28;20506;-69
2022/04/15 03:20:08;;;;;;;1.60;1.10;;;19.10;50.90;;;;;;5070624;28;20044;-68
2022/04/15 03:22:38;;;;;;;1.77;1.05;;;19.10;50.90;;;;;;5070700;28;20158;-69
2022/04/15 03:25:05;;;;;;;3.38;1.25;;;19.10;50.90;;;;;;5071004;28;20054;-68
2022/04/15 03:27:30;;;;;;;1.65;1.10;;;19.10;50.90;;;;;;5071356;28;20044;-68
2022/04/15 03:29:56;;;;;;;1.20;1.00;;;19.00;50.90;;;;;;5070039;28;20037;-69
2022/04/15 03:32:22;;;;;;;2.05;1.20;;;19.00;50.90;;;;;;5070852;28;20036;-68
2022/04/15 03:34:48;;;;;;;1.75;1.10;;;19.00;50.90;;;;;;5070814;28;20399;-68
2022/04/15 03:37:13;;;;;;;1.63;1.08;;;19.00;50.90;;;;;;5069571;28;20093;-68
2022/04/15 03:39:39;;;;;;;3.25;1.10;;;19.10;51.00;;;;;;5068808;28;20049;-69
2022/04/15 03:42:07;;;;;;;1.65;1.23;;;19.00;50.90;;;;;;5070738;28;20262;-69
2022/04/15 03:44:32;;;;;;;2.97;1.20;;;19.00;50.90;;;;;;5069990;28;20066;-68
2022/04/15 03:46:58;;;;;;;2.40;1.40;;;19.00;51.00;;;;;;5070415;28;20432;-69
2022/04/15 03:49:24;;;;;;;2.45;1.35;;;19.00;51.00;;;;;;5070355;28;20048;-69
2022/04/15 03:51:49;;;;;;;1.45;1.30;;;19.00;51.00;;;;;;5070530;28;20059;-69
2022/04/15 03:54:15;;;;;;;2.15;1.30;;;19.00;51.00;;;;;;5070512;28;20427;-69
2022/04/15 03:56:40;;;;;;;1.73;1.10;;;19.00;51.00;;;;;;5070508;28;20124;-68
2022/04/15 03:59:06;;;;;;;2.17;1.13;;;19.00;51.00;;;;;;5071281;28;20045;-69
2022/04/15 04:01:32;;;;;;;1.70;1.27;;;19.00;51.00;;;;;;5069762;28;20037;-68
2022/04/15 04:03:58;;;;;;;3.67;1.20;;;19.00;51.00;;;;;;5070494;28;20082;-68
2022/04/15 04:06:23;;;;;;;1.92;1.30;;;19.00;51.00;;;;;;5071055;28;20037;-70
2022/04/15 04:08:49;;;;;;;2.60;1.27;;;19.00;51.10;;;;;;5070832;28;20052;-68
2022/04/15 04:11:19;;;;;;;1.92;1.10;;;19.00;51.00;;;;;;5070924;28;20036;-68
2022/04/15 04:13:45;;;;;;;2.47;1.30;;;19.00;51.10;;;;;;5071026;28;20075;-68
2022/04/15 04:16:12;;;;;;;1.35;1.10;;;19.00;51.10;;;;;;5069724;28;20067;-69
2022/04/15 04:18:38;;;;;;;1.98;1.20;;;18.90;51.10;;;;;;5070318;28;20051;-69
2022/04/15 04:21:04;;;;;;;1.90;1.30;;;19.00;51.30;;;;;;5074349;28;20051;-68
2022/04/15 04:23:30;;;;;;;1.85;1.30;;;18.90;51.00;;;;;;5074024;28;20036;-68
2022/04/15 04:25:56;;;;;;;1.70;1.20;;;18.90;51.00;;;;;;5073996;28;20043;-68
2022/04/15 04:28:21;;;;;;;3.50;1.45;;;18.90;51.10;;;;;;5073771;28;20381;-68
2022/04/15 04:30:47;;;;;;;1.55;1.20;;;18.90;51.00;;;;;;5073390;28;20036;-68
2022/04/15 04:33:12;;;;;;;2.80;1.20;;;18.90;51.10;;;;;;5072847;28;20488;-68
2022/04/15 04:35:38;;;;;;;2.42;1.10;;;18.90;51.10;;;;;;5073005;28;20044;-68
2022/04/15 04:38:05;;;;;;;1.92;1.30;;;18.90;51.10;;;;;;5073520;28;20036;-69
2022/04/15 04:40:35;;;;;;;2.50;1.30;;;18.90;51.10;;;;;;5073725;28;20045;-69
2022/04/15 04:43:02;;;;;;;1.05;0.93;;;18.90;51.10;;;;;;5073845;28;20701;-68
2022/04/15 04:45:29;;;;;;;1.83;1.33;;;18.90;51.10;;;;;;5073350;28;20037;-69
2022/04/15 04:47:56;;;;;;;2.35;1.08;;;18.90;51.10;;;;;;5074192;28;20400;-69
2022/04/15 04:50:22;;;;;;;1.30;1.20;;;18.90;51.10;;;;;;5074563;28;20068;-68
2022/04/15 04:52:48;;;;;;;1.65;1.42;;;18.90;51.10;;;;;;5073477;28;20464;-69
2022/04/15 04:55:15;;;;;;;1.80;1.20;;;18.90;51.10;;;;;;5072567;28;20411;-68
2022/04/15 04:57:42;;;;;;;1.75;1.23;;;18.90;51.10;;;;;;5073806;28;20055;-68
2022/04/15 05:00:10;;;;;;;2.72;1.30;;;18.90;51.10;;;;;;5072502;28;20091;-68
2022/04/15 05:02:36;;;;;;;1.42;1.13;;;18.80;51.00;;;;;;5073409;28;20073;-69
2022/04/15 05:05:02;;;;;;;2.08;1.30;;;18.90;51.10;;;;;;5073784;28;20036;-69
2022/04/15 05:07:28;;;;;;;1.77;1.20;;;18.80;51.00;;;;;;5073541;28;20132;-69
2022/04/15 05:09:53;;;;;;;1.33;1.23;;;18.80;51.00;;;;;;5072849;28;20115;-69
2022/04/15 05:12:19;;;;;;;1.30;1.20;;;18.80;51.00;;;;;;5073531;28;20113;-69
2022/04/15 05:14:45;;;;;;;1.65;1.10;;;18.80;51.00;;;;;;5071388;28;20190;-68
2022/04/15 05:17:10;;;;;;;2.35;1.30;;;18.80;51.00;;;;;;5073146;28;20048;-69
2022/04/15 05:19:36;;;;;;;1.85;1.00;;;18.80;51.10;;;;;;5073607;28;20084;-68
2022/04/15 05:22:02;;;;;;;1.67;1.20;;;18.80;51.80;;;;;;5073074;28;20108;-69
2022/04/15 05:24:28;;;;;;;1.98;1.10;;;18.80;51.10;;;;;;5073024;28;20395;-68
2022/04/15 05:26:53;;;;;;;1.17;1.08;;;18.80;51.00;;;;;;5073416;28;20028;-69
2022/04/15 05:29:19;;;;;;;1.85;1.20;;;18.80;51.00;;;;;;5072418;28;20048;-68
2022/04/15 05:31:44;;;;;;;1.42;1.15;;;18.80;51.10;;;;;;5071504;28;20106;-69
2022/04/15 05:34:10;;;;;;;2.20;1.35;;;18.80;51.00;;;;;;5072987;28;20052;-69
2022/04/15 05:36:36;;;;;;;1.30;1.20;;;18.80;51.00;;;;;;5073133;28;20045;-69
2022/04/15 05:39:02;;;;;;;2.00;1.17;;;18.80;51.00;;;;;;5072493;28;20059;-69
2022/04/15 05:41:28;;;;;;;1.63;1.23;;;18.80;51.00;;;;;;5072816;28;20058;-69
2022/04/15 05:43:53;;;;;;;2.20;1.30;;;18.80;51.00;;;;;;5072825;28;20032;-69
2022/04/15 05:46:19;;;;;;;2.50;1.30;;;18.80;51.00;;;;;;5071901;28;20503;-69
2022/04/15 05:48:45;;;;;;;1.52;1.13;;;18.80;51.00;;;;;;5072314;28;20044;-69
2022/04/15 05:51:11;;;;;;;2.10;1.20;;;18.80;51.00;;;;;;5071741;28;20044;-69
2022/04/15 05:53:37;;;;;;;1.85;1.20;;;18.80;51.00;;;;;;5072426;28;20495;-68
2022/04/15 05:56:03;;;;;;;1.20;1.10;;;18.80;51.00;;;;;;5072404;28;20040;-68
2022/04/15 05:58:29;;;;;;;1.48;1.20;;;18.70;51.00;;;;;;5070767;28;20055;-68
2022/04/15 06:00:55;;;;;;;2.35;1.10;;;18.70;51.00;;;;;;5071541;28;20029;-67
2022/04/15 06:03:22;;;;;;;1.52;1.30;;;18.70;51.00;;;;;;5072340;28;20068;-67
2022/04/15 06:05:51;;;;;;;2.28;1.15;;;18.70;51.00;;;;;;5072333;28;20076;-66
2022/04/15 06:08:17;;;;;;;1.10;1.00;;;18.70;51.80;;;;;;5071794;28;20468;-66
2022/04/15 06:10:43;;;;;;;1.90;1.10;;;18.70;51.00;;;;;;5072056;28;20044;-66
2022/04/15 06:13:13;;;;;;;1.90;1.20;;;18.70;51.00;;;;;;5071141;28;20039;-67
2022/04/15 06:15:41;;;;;;;2.13;1.20;;;18.70;51.00;;;;;;5071497;28;20044;-67
2022/04/15 06:18:08;;;;;;;1.45;1.15;;;18.70;51.00;;;;;;5071704;28;20419;-66
2022/04/15 06:20:34;;;;;;;1.73;1.20;;;18.70;51.00;;;;;;5072156;28;20074;-66
2022/04/15 06:23:00;;;;;;;1.63;1.13;;;18.70;51.00;;;;;;5071692;28;20044;-67
2022/04/15 06:25:26;;;;;;;1.90;1.20;;;18.70;51.00;;;;;;5071862;28;20131;-66
2022/04/15 06:27:54;;;;;;;1.50;1.08;;;18.70;51.00;;;;;;5071564;28;20032;-66
2022/04/15 06:30:21;;;;;;;1.92;1.20;;;18.70;51.00;;;;;;5071240;28;20041;-66
2022/04/15 06:32:47;;;;;;;2.50;1.15;;;18.70;51.00;;;;;;5071880;28;20047;-66
2022/04/15 06:35:13;;;;;;;1.27;1.13;;;18.70;50.90;;;;;;5071919;28;20040;-66
2022/04/15 06:37:39;;;;;;;1.35;1.10;;;18.80;51.00;;;;;;5071532;28;20515;-66
2022/04/15 06:40:05;;;;;;;2.50;1.25;;;18.70;50.90;;;;;;5071056;28;20048;-66
2022/04/15 06:42:31;;;;;;;1.50;1.20;;;18.70;50.90;;;;;;5071242;28;20044;-66
2022/04/15 06:44:58;;;;;;;1.45;1.10;;;18.70;50.90;;;;;;5070832;28;20037;-66
2022/04/15 06:47:24;;;;;;;2.20;1.30;;;18.70;50.90;;;;;;5071845;28;20036;-66
2022/04/15 06:49:49;;;;;;;1.60;1.15;;;18.70;50.90;;;;;;5070941;28;20417;-66
2022/04/15 06:52:15;;;;;;;1.20;1.10;;;18.70;50.90;;;;;;5071070;28;20048;-66
2022/04/15 06:54:41;;;;;;;1.35;1.20;;;18.70;50.90;;;;;;5064397;28;20471;-66
2022/04/15 06:57:08;;;;;;;1.13;1.00;;;18.70;50.90;;;;;;5071122;28;20075;-67
2022/04/15 06:59:33;;;;;;;1.10;1.00;;;18.70;50.90;;;;;;5070035;28;20044;-66
2022/04/15 07:02:01;;;;;;;1.58;1.02;;;18.70;50.90;;;;;;5071228;28;20058;-67
2022/04/15 07:04:27;;;;;;;1.70;1.27;;;18.70;50.90;;;;;;5071144;28;20437;-67
2022/04/15 07:06:53;;;;;;;1.85;1.15;;;18.70;50.90;;;;;;5071444;28;20275;-66
2022/04/15 07:09:19;;;;;;;1.80;1.20;;;18.80;51.00;;;;;;5070745;28;20580;-67
2022/04/15 07:11:45;;;;;;;1.40;1.20;;;18.70;50.90;;;;;;5070615;28;20123;-67
2022/04/15 07:14:10;;;;;;;2.58;1.20;;;18.70;50.90;;;;;;5070856;28;20453;-66
2022/04/15 07:16:36;;;;;;;1.48;1.20;;;18.80;51.00;;;;;;5069918;28;20054;-67
2022/04/15 07:19:04;;;;;;;2.42;1.40;;;18.80;51.00;;;;;;5070900;28;20055;-66
2022/04/15 07:21:40;;;;;;;1.13;1.03;;;18.80;51.80;;;;;;5071257;28;20086;-66
2022/04/15 07:24:06;;;;;;;1.77;1.20;;;18.80;51.00;;;;;;5051285;28;20674;-66
2022/04/15 07:26:32;;;;;;;4.68;1.38;;;18.80;51.00;;;;;;5051132;28;20463;-67
2022/04/15 07:28:58;;;;;;;2.38;1.40;;;18.80;51.00;;;;;;5051271;28;20055;-67
2022/04/15 07:31:24;;;;;;;2.58;1.30;;;18.80;51.00;;;;;;5050179;28;20053;-67
2022/04/15 07:33:50;;;;;;;3.40;1.30;;;18.80;51.00;;;;;;5050454;28;20048;-66
2022/04/15 07:36:42;;;;;;;1.45;1.17;;;18.80;51.00;;;;;;5051039;28;20461;-66
2022/04/15 07:39:09;;;;;;;1.88;1.25;;;18.80;51.00;;;;;;5050042;28;20045;-67
2022/04/15 07:41:36;;;;;;;3.05;1.40;;;18.80;51.00;;;;;;5050519;28;20128;-66
2022/04/15 07:44:09;;;;;;;1.95;1.40;;;18.80;51.00;;;;;;5063535;28;20056;-66
2022/04/15 07:46:35;;;;;;;3.70;1.50;;;18.80;51.00;;;;;;5069686;28;20040;-66
2022/04/15 07:49:02;;;;;;;1.40;1.30;;;18.80;50.90;;;;;;5070214;28;20040;-67
2022/04/15 07:51:27;;;;;;;1.42;1.23;;;18.80;50.90;;;;;;5070909;28;20036;-67
2022/04/15 07:53:53;;;;;;;1.60;1.30;;;18.80;50.90;;;;;;5069812;28;20040;-66
2022/04/15 07:56:19;;;;;;;1.30;1.20;;;18.80;50.90;;;;;;5070576;28;20500;-67
2022/04/15 07:58:44;;;;;;;1.50;1.20;;;18.80;50.90;;;;;;5070009;28;20102;-66
2022/04/15 08:01:10;;;;;;;2.85;1.40;;;18.80;50.90;;;;;;5069509;28;20040;-66
2022/04/15 08:03:36;;;;;;;1.75;1.42;;;18.90;50.90;;;;;;5070434;28;20040;-67
2022/04/15 08:06:03;;;;;;;1.88;1.40;;;18.80;50.90;;;;;;5070382;28;20072;-67
2022/04/15 08:08:29;;;;;;;2.08;1.65;;;18.90;50.90;;;;;;5069821;28;20601;-67
2022/04/15 08:10:55;;;;;;;1.48;1.20;;;18.80;50.90;;;;;;5070318;28;20036;-66
2022/04/15 08:13:21;;;;;;;1.55;1.35;;;18.80;50.80;;;;;;5070301;28;20090;-66
2022/04/15 08:15:48;;;;;;;1.90;1.50;;;18.90;50.80;;;;;;5069622;28;20051;-66
2022/04/15 08:18:14;;;;;;;2.13;1.60;;;18.90;50.80;;;;;;5070529;28;20061;-66
2022/04/15 08:20:39;;;;;;;1.73;1.40;;;18.90;50.80;;;;;;5070726;28;20352;-67
2022/04/15 08:23:09;;;;;;;1.67;1.27;;;18.90;50.80;;;;;;5070414;28;20052;-67
2022/04/15 08:25:35;;;;;;;2.35;1.50;;;18.90;50.80;;;;;;5070196;28;20090;-67
2022/04/15 08:28:01;;;;;;;2.05;1.67;;;18.90;50.80;;;;;;5069914;28;20041;-67
2022/04/15 08:30:27;;;;;;;1.65;1.50;;;18.90;50.80;;;;;;5068280;28;20083;-66
2022/04/15 08:32:53;;;;;;;1.45;1.27;;;19.00;50.80;;;;;;5069924;28;20084;-66
2022/04/15 08:35:19;;;;;;;2.33;1.55;;;19.00;50.80;;;;;;5070266;28;20118;-67
2022/04/15 08:37:45;;;;;;;1.50;1.40;;;19.00;50.70;;;;;;5069873;28;20125;-67
2022/04/15 08:40:12;;;;;;;3.40;1.60;;;19.10;50.70;;;;;;5069618;28;20541;-67
2022/04/15 08:42:40;;;;;;;1.67;1.58;;;19.10;50.70;;;;;;5070533;28;20116;-67
2022/04/15 08:45:07;;;;;;;;;;;19.10;50.70;;;;;;5070032;28;20060;-66
2022/04/15 08:47:35;;;;;;;1.85;1.55;;;19.10;50.70;;;;;;5070341;28;19966;-67
2022/04/15 08:50:01;;;;;;;1.75;1.60;;;19.10;51.40;;;;;;5069696;28;20408;-67
2022/04/15 08:52:27;;;;;;;2.05;1.30;;;19.20;50.60;;;;;;5069827;28;20470;-66
2022/04/15 08:54:53;;;;;;;1.50;1.30;;;19.20;50.50;;;;;;5069711;28;20079;-67
2022/04/15 08:57:18;;;;;;;2.85;1.40;;;19.20;50.50;;;;;;5070034;28;20106;-67
2022/04/15 08:59:44;;;;;;;2.40;1.60;;;19.30;50.50;;;;;;5068845;28;20101;-68
2022/04/15 09:02:14;;;;;;;2.55;1.48;;;19.30;50.50;;;;;;5069950;28;20135;-69
2022/04/15 09:04:40;;;;;;;1.88;1.30;;;19.30;50.40;;;;;;5070342;28;20194;-69
2022/04/15 09:07:05;;;;;;;2.47;1.40;;;19.40;50.40;;;;;;5073938;28;20131;-69
2022/04/15 09:09:32;;;;;;;2.25;1.65;;;19.40;50.30;;;;;;5073810;28;20162;-69
2022/04/15 09:11:59;;;;;;;2.35;1.38;;;19.40;50.30;;;;;;5073882;28;20047;-69
2022/04/15 09:14:26;;;;;;;2.55;1.45;;;19.50;50.30;;;;;;5072944;28;20055;-69
2022/04/15 09:16:52;;;;;;;3.08;1.58;;;19.50;50.20;;;;;;5072635;28;20885;-68
2022/04/15 09:19:19;;;;;;;2.53;1.45;;;19.60;50.20;;;;;;5072769;28;20396;-69
2022/04/15 09:21:52;;;;;;;1.48;1.33;;;19.60;50.20;;;;;;5067124;28;20028;-69
2022/04/15 09:24:34;;;;;;;1.85;1.38;;;19.60;50.10;;;;;;5073010;28;20495;-69
2022/04/15 09:27:04;;;;;;;2.28;1.30;;;19.60;50.10;;;;;;5073060;28;20036;-69
2022/04/15 09:29:34;;;;;;;2.72;1.40;;;19.70;50.10;;;;;;5071934;28;20040;-68
2022/04/15 09:32:06;;;;;;;3.28;1.60;;;19.70;50.10;;;;;;5072899;28;20040;-68
2022/04/15 09:34:32;;;;;;;1.67;1.20;;;19.70;50.10;;;;;;5072888;28;20052;-69
2022/04/15 09:36:57;;;;;;;1.83;1.50;;;19.70;50.00;;;;;;5072896;28;20417;-68
2022/04/15 09:39:23;;;;;;;2.25;1.45;;;19.70;50.10;;;;;;5072372;28;20043;-69
2022/04/15 09:41:54;;;;;;;2.00;1.35;;;19.80;52.40;;;;;;5072959;28;20039;-69
2022/04/15 09:44:31;;;;;;;1.55;1.42;;;19.80;50.80;;;;;;5072796;28;20047;-69
2022/04/15 09:47:03;;;;;;;2.72;1.63;;;19.90;49.30;;;;;;5072727;28;20087;-69
2022/04/15 09:49:32;;;;;;;2.80;1.50;;;19.90;50.70;;;;;;5072604;28;20123;-69
2022/04/15 09:51:59;;;;;;;;;;;20.00;57.30;;;;;;5071799;28;20407;-68
2022/04/15 09:54:27;;;;;;;2.13;1.37;;;20.00;55.50;;;;;;5072554;28;19926;-69
2022/04/15 09:56:58;;;;;;;1.50;1.40;;;20.00;49.80;;;;;;5072575;28;20795;-69
2022/04/15 09:59:25;;;;;;;2.80;1.30;;;20.00;49.80;;;;;;5071795;28;20559;-69
2022/04/15 10:01:57;;;;;;;2.00;1.43;;;20.00;49.70;;;;;;5072597;28;20044;-69
2022/04/15 10:04:26;;;;;;;1.77;1.35;;;20.10;49.70;;;;;;5071224;28;20392;-69
2022/04/15 10:06:53;;;;;;;1.58;1.35;;;20.10;49.60;;;;;;5072508;28;20045;-69
2022/04/15 10:09:19;;;;;;;2.00;1.40;;;20.10;49.70;;;;;;5072044;28;20040;-68
2022/04/15 10:11:46;;;;;;;2.22;1.50;;;20.10;49.80;;;;;;5059149;28;20475;-68
2022/04/15 10:14:13;;;;;;;2.22;1.30;;;20.10;49.60;;;;;;5052357;28;20044;-69
2022/04/15 10:16:40;;;;;;;2.35;1.60;;;20.20;49.70;;;;;;5050327;28;20053;-68
2022/04/15 10:19:07;;;;;;;3.30;1.65;;;20.20;49.70;;;;;;5051752;28;20045;-68
2022/04/15 10:21:35;;;;;;;1.48;1.38;;;20.20;49.60;;;;;;5052486;28;20041;-68
2022/04/15 10:24:02;;;;;;;1.90;1.55;;;20.20;49.60;;;;;;5071311;28;20127;-68
2022/04/15 10:26:59;;;;;;;1.90;1.30;;;20.20;49.50;;;;;;5072105;28;20102;-68
2022/04/15 10:29:25;;;;;;;1.83;1.50;;;20.30;49.50;;;;;;5071526;28;20099;-68
2022/04/15 10:31:52;;;;;;;2.70;1.50;;;20.30;49.50;;;;;;5071785;28;20068;-68
2022/04/15 10:34:21;;;;;;;2.97;1.60;;;20.30;49.50;;;;;;5072134;28;20527;-68
2022/04/15 10:36:48;;;;;;;2.67;1.55;;;20.30;49.40;;;;;;5071914;28;20063;-69
2022/04/15 10:39:17;;;;;;;1.83;1.30;;;20.30;49.40;;;;;;5071195;28;20050;-68
2022/04/15 10:41:42;;;;;;;2.38;1.50;;;20.30;49.40;;;;;;5071754;28;20036;-68
2022/04/15 10:44:30;;;;;;;2.28;1.45;;;20.30;49.40;;;;;;5071971;28;20075;-69
2022/04/15 10:47:17;;;;;;;2.38;1.42;;;20.30;49.40;;;;;;5071728;28;20040;-69
2022/04/15 10:50:15;;;;;;;2.10;1.27;;;20.30;49.40;;;;;;5071235;28;20083;-69
2022/04/15 10:52:41;;;;;;;1.83;1.42;;;20.30;49.40;;;;;;5089949;28;20056;-69
2022/04/15 10:55:08;;;;;;;2.60;1.33;;;20.30;49.40;;;;;;5066758;28;20043;-68
2022/04/15 10:57:35;;;;;;;2.38;1.60;;;20.30;49.40;;;;;;5070965;28;20044;-69
2022/04/15 11:02:52;;;;;;;2.25;1.33;;;20.30;49.40;;;;;;5071500;28;20518;-69
2022/04/15 11:05:37;;;;;;;2.10;1.45;;;20.40;49.40;;;;;;5071379;28;20040;-68
2022/04/15 11:08:10;;;;;;;1.95;1.45;;;20.30;50.10;;;;;;5070416;28;20041;-69
2022/04/15 11:11:03;;;;;;;2.90;1.42;;;20.40;49.40;;;;;;5071183;28;20045;-69
2022/04/15 11:13:40;;;;;;;2.00;1.38;;;20.30;49.30;;;;;;5070821;28;20067;-69
2022/04/15 11:16:11;;;;;;;1.52;1.42;;;20.30;49.30;;;;;;5070125;28;20044;-69
2022/04/15 11:18:59;;;;;;;2.08;1.52;;;20.40;49.30;;;;;;5070401;28;20495;-68
2022/04/15 11:21:39;;;;;;;2.42;1.50;;;20.30;49.20;;;;;;5071391;28;20041;-69
2022/04/15 11:24:12;;;;;;;2.25;1.50;;;20.40;49.30;;;;;;5051232;28;20128;-69
2022/04/15 11:26:40;;;;;;;2.40;1.40;;;20.40;49.30;;;;;;5051291;28;20033;-68
2022/04/15 11:29:07;;;;;;;3.35;1.83;;;20.30;49.30;;;;;;5050457;28;20557;-69
2022/04/15 11:31:35;;;;;;;2.67;1.90;;;20.30;49.30;;;;;;5050372;28;20045;-69
2022/04/15 11:34:20;;;;;;;1.98;1.40;;;20.30;49.30;;;;;;5050621;28;20041;-69
2022/04/15 11:36:50;;;;;;;1.63;1.33;;;20.40;49.30;;;;;;5050955;28;20049;-69
2022/04/15 11:39:21;;;;;;;2.25;1.45;;;20.30;49.20;;;;;;5050221;28;20041;-69
2022/04/15 11:41:54;;;;;;;3.03;1.48;;;20.40;49.30;;;;;;5050676;28;20037;-69
2022/04/15 11:44:22;;;;;;;2.42;1.60;;;20.40;49.30;;;;;;5070497;28;20078;-69
2022/04/15 11:46:52;;;;;;;2.88;1.65;;;20.30;49.30;;;;;;5070265;28;20131;-68
2022/04/15 11:49:28;;;;;;;2.13;1.60;;;20.40;49.40;;;;;;5071047;28;20086;-69
2022/04/15 11:51:58;;;;;;;2.72;1.40;;;20.30;49.20;;;;;;5070685;28;20475;-68
2022/04/15 11:54:31;;;;;;;1.73;1.30;;;20.40;49.30;;;;;;5070351;28;20123;-69
2022/04/15 11:56:58;;;;;;;2.20;1.80;;;20.40;49.30;;;;;;5070548;28;20084;-69
2022/04/15 11:59:24;;;;;;;2.30;1.50;;;20.40;49.30;;;;;;5070131;28;20087;-68
2022/04/15 12:01:52;;;;;;;2.15;1.60;;;20.40;49.30;;;;;;5069992;28;20055;-68
2022/04/15 12:04:18;;;;;;;1.98;1.35;;;20.40;49.30;;;;;;5070496;28;20052;-69
2022/04/15 12:06:44;;;;;;;2.05;1.40;;;20.40;49.30;;;;;;5070448;28;20053;-68
2022/04/15 12:09:11;;;;;;;2.38;1.80;;;20.40;49.30;;;;;;5070124;28;20090;-69
2022/04/15 12:11:38;;;;;;;2.55;1.63;;;20.40;49.30;;;;;;5070004;28;20045;-68
2022/04/15 12:14:06;;;;;;;2.90;1.58;;;20.40;49.30;;;;;;5070485;28;20526;-68
2022/04/15 12:16:33;;;;;;;2.00;1.65;;;20.40;49.30;;;;;;5069154;28;20135;-69
2022/04/15 12:18:59;;;;;;;2.88;1.60;;;20.40;49.30;;;;;;5070189;28;20090;-69
2022/04/15 12:21:27;;;;;;;1.92;1.42;;;20.30;49.30;;;;;;5070548;28;20377;-69
2022/04/15 12:24:07;;;;;;;1.98;1.50;;;20.40;49.40;;;;;;5070176;28;20067;-68
2022/04/15 12:26:52;;;;;;;2.35;1.58;;;20.30;49.30;;;;;;5070417;28;20036;-68
2022/04/15 12:32:36;;;;;;;1.73;1.20;;;20.40;49.40;;;;;;5062907;28;20045;-68
2022/04/15 12:35:02;;;;;;;2.10;1.40;;;20.40;49.50;;;;;;5049353;28;20044;-69
2022/04/15 12:37:36;;;;;;;2.50;1.40;;;20.30;49.40;;;;;;5050522;28;20095;-68
2022/04/15 12:40:07;;;;;;;2.15;1.48;;;20.30;49.40;;;;;;5050214;28;20126;-68
2022/04/15 12:42:34;;;;;;;1.60;1.50;;;20.40;49.40;;;;;;5054183;28;20045;-69
2022/04/15 12:45:03;;;;;;;2.10;1.60;;;20.40;49.40;;;;;;5053142;28;20044;-69
2022/04/15 12:47:29;;;;;;;3.47;1.55;;;20.40;49.40;;;;;;5053054;28;20048;-68
2022/04/15 12:50:20;;;;;;;2.22;1.58;;;20.30;49.40;;;;;;5053420;28;20083;-69
2022/04/15 12:52:47;;;;;;;2.15;1.40;;;20.40;49.40;;;;;;5053731;28;20610;-69
2022/04/15 12:55:12;;;;;;;2.35;1.60;;;20.40;49.40;;;;;;5053920;28;20052;-68
2022/04/15 12:57:43;;;;;;;1.85;1.52;;;20.30;49.40;;;;;;5053843;28;20059;-69